createdAt,value
2019-02-15T00:02:03.163Z,79.63
2019-02-15T00:05:03.166Z,80.25
2019-02-15T00:10:52.505Z,79.55
2019-02-15T00:13:44.488Z,80.57
2019-02-15T00:16:36.667Z,79.99
2019-02-15T00:19:22.165Z,79.58
2019-02-15T00:22:36.985Z,79.95
2019-02-15T00:25:40.794Z,79.46
2019-02-15T00:28:34.919Z,79.85
2019-02-15T00:31:43.884Z,80.92
2019-02-15T00:33:56.231Z,79.79
2019-02-15T00:36:56.356Z,79.82
2019-02-15T00:39:42.764Z,80.72
2019-02-15T00:45:24.845Z,80.19
2019-02-15T00:48:22.730Z,81.06
2019-02-15T00:51:03.751Z,81.20
2019-02-15T00:54:09.996Z,81.70
2019-02-15T00:57:35.606Z,81.98
2019-02-15T01:00:49.837Z,81.86
2019-02-15T01:03:38.823Z,81.36
2019-02-15T01:06:25.083Z,81.23
2019-02-15T01:09:25.247Z,80.76
2019-02-15T01:12:25.635Z,81.12
2019-02-15T01:15:07.995Z,81.48
2019-02-15T01:18:09.091Z,80.80
2019-02-15T01:20:51.487Z,80.65
2019-02-15T01:23:35.473Z,79.35
2019-02-15T01:26:13.484Z,79.73
2019-02-15T01:29:09.133Z,80.65
2019-02-15T01:32:09.158Z,80.00
2019-02-15T01:34:41.063Z,79.75
2019-02-15T01:37:25.203Z,80.75
2019-02-15T01:40:03.213Z,80.33
2019-02-15T01:42:56.068Z,80.57
2019-02-15T01:45:38.628Z,80.18
2019-02-15T01:48:15.516Z,79.92
2019-02-15T01:51:01.849Z,80.56
2019-02-15T01:53:49.527Z,80.55
2019-02-15T01:56:30.686Z,81.32
2019-02-15T01:59:18.033Z,80.69
2019-02-15T02:02:00.644Z,81.44
2019-02-15T02:04:56.772Z,82.60
2019-02-15T02:07:43.994Z,82.56
2019-02-15T02:10:33.564Z,82.58
2019-02-15T02:16:13.784Z,83.06
2019-02-15T02:19:02.037Z,82.89
2019-02-15T02:21:46.885Z,81.98
2019-02-15T02:24:39.461Z,82.07
2019-02-15T02:27:20.217Z,81.55
2019-02-15T02:29:54.739Z,82.51
2019-02-15T02:32:40.993Z,83.30
2019-02-15T02:35:26.714Z,83.16
2019-02-15T02:38:14.143Z,84.15
2019-02-15T02:41:16.879Z,83.87
2019-02-15T02:44:00.007Z,84.35
2019-02-15T02:46:40.789Z,83.77
2019-02-15T02:49:23.506Z,83.79
2019-02-15T02:52:01.043Z,83.31
2019-02-15T02:54:42.236Z,83.25
2019-02-15T02:57:17.650Z,83.02
2019-02-15T03:00:04.756Z,83.37
2019-02-15T03:02:40.273Z,83.55
2019-02-15T03:05:21.698Z,83.46
2019-02-15T03:08:05.981Z,83.46
2019-02-15T03:10:53.142Z,83.76
2019-02-15T03:13:33.835Z,83.51
2019-02-15T03:16:23.180Z,82.96
2019-02-15T03:19:14.939Z,82.81
2019-02-15T03:21:45.411Z,82.49
2019-02-15T03:24:33.858Z,82.83
2019-02-15T03:27:07.375Z,82.78
2019-02-15T03:29:43.401Z,82.93
2019-02-15T03:32:15.065Z,83.33
2019-02-15T03:34:50.773Z,83.70
2019-02-15T03:37:47.625Z,83.69
2019-02-15T03:40:26.763Z,83.14
2019-02-15T03:43:01.687Z,84.00
2019-02-15T03:45:33.665Z,83.80
2019-02-15T03:48:07.064Z,85.14
2019-02-15T03:50:39.947Z,84.39
2019-02-15T03:53:14.275Z,84.95
2019-02-15T03:55:57.358Z,84.14
2019-02-15T03:58:40.341Z,84.41
2019-02-15T04:01:16.920Z,83.95
2019-02-15T04:04:02.686Z,83.99
2019-02-15T04:06:40.247Z,83.87
2019-02-15T04:09:37.862Z,83.48
2019-02-15T04:12:55.079Z,83.13
2019-02-15T04:15:51.637Z,83.37
2019-02-15T04:18:27.577Z,83.52
2019-02-15T04:20:59.417Z,83.31
2019-02-15T04:23:44.569Z,82.92
2019-02-15T04:26:16.321Z,83.00
2019-02-15T04:28:59.325Z,82.68
2019-02-15T04:31:40.686Z,83.83
2019-02-15T04:34:22.485Z,83.11
2019-02-15T04:36:55.719Z,83.75
2019-02-15T04:39:27.198Z,83.76
2019-02-15T04:41:58.703Z,84.49
2019-02-15T04:44:30.100Z,84.37
2019-02-15T04:47:01.421Z,84.98
2019-02-15T04:49:32.810Z,85.25
2019-02-15T04:52:04.224Z,85.06
2019-02-15T04:54:35.764Z,85.26
2019-02-15T04:57:07.222Z,84.94
2019-02-15T04:59:42.576Z,85.08
2019-02-15T05:02:40.469Z,85.04
2019-02-15T05:05:12.220Z,84.96
2019-02-15T05:07:43.605Z,84.51
2019-02-15T05:10:14.960Z,85.37
2019-02-15T05:12:46.581Z,85.38
2019-02-15T05:15:17.891Z,85.75
2019-02-15T05:17:49.440Z,85.19
2019-02-15T05:20:20.899Z,84.94
2019-02-15T05:22:53.305Z,84.51
2019-02-15T05:25:24.710Z,84.33
2019-02-15T05:27:55.992Z,84.50
2019-02-15T05:30:27.404Z,84.57
2019-02-15T05:32:58.739Z,84.37
2019-02-15T05:35:30.036Z,83.83
2019-02-15T05:38:01.401Z,84.00
2019-02-15T05:40:32.680Z,83.78
2019-02-15T05:43:04.129Z,83.70
2019-02-15T05:45:35.410Z,83.48
2019-02-15T05:48:06.845Z,83.60
2019-02-15T05:50:38.101Z,83.96
2019-02-15T05:53:09.496Z,84.08
2019-02-15T05:55:43.612Z,84.26
2019-02-15T05:58:15.002Z,84.60
2019-02-15T06:00:46.277Z,83.77
2019-02-15T06:03:17.590Z,83.87
2019-02-15T06:05:50.063Z,83.50
2019-02-15T06:08:21.328Z,83.55
2019-02-15T06:10:52.619Z,83.38
2019-02-15T06:13:25.016Z,83.47
2019-02-15T06:15:56.376Z,83.33
2019-02-15T06:18:27.674Z,83.86
2019-02-15T06:20:59.060Z,84.01
2019-02-15T06:23:30.368Z,83.79
2019-02-15T06:26:01.711Z,83.76
2019-02-15T06:28:33.067Z,84.64
2019-02-15T06:31:04.644Z,84.58
2019-02-15T06:33:36.042Z,85.02
2019-02-15T06:36:07.354Z,84.71
2019-02-15T06:38:38.726Z,85.63
2019-02-15T06:41:12.279Z,85.58
2019-02-15T06:43:43.139Z,85.16
2019-02-15T06:46:14.570Z,84.10
2019-02-15T06:48:47.002Z,84.03
2019-02-15T06:51:18.358Z,84.36
2019-02-15T06:53:49.662Z,84.16
2019-02-15T06:56:21.022Z,84.06
2019-02-15T06:58:55.007Z,83.94
2019-02-15T07:01:27.975Z,84.20
2019-02-15T07:04:01.162Z,85.15
2019-02-15T07:06:32.595Z,85.23
2019-02-15T07:09:04.954Z,85.18
2019-02-15T07:11:36.385Z,84.60
2019-02-15T07:14:07.767Z,84.40
2019-02-15T07:16:39.233Z,85.09
2019-02-15T07:19:10.604Z,85.18
2019-02-15T07:21:42.024Z,85.03
2019-02-15T07:24:13.307Z,85.65
2019-02-15T07:26:44.764Z,85.79
2019-02-15T07:29:16.047Z,85.61
2019-02-15T07:31:47.476Z,85.73
2019-02-15T07:34:19.087Z,85.81
2019-02-15T07:36:51.576Z,86.09
2019-02-15T07:39:22.964Z,86.01
2019-02-15T07:41:54.301Z,85.58
2019-02-15T07:44:25.722Z,85.81
2019-02-15T07:46:57.069Z,85.91
2019-02-15T07:49:28.422Z,85.98
2019-02-15T07:51:59.696Z,85.98
2019-02-15T07:54:31.016Z,85.74
2019-02-15T07:57:03.227Z,85.93
2019-02-15T07:59:34.662Z,86.53
2019-02-15T08:02:06.181Z,87.08
2019-02-15T08:04:37.568Z,86.72
2019-02-15T08:07:08.929Z,86.67
2019-02-15T08:09:40.456Z,86.60
2019-02-15T08:12:11.751Z,86.43
2019-02-15T08:14:43.144Z,86.32
2019-02-15T08:17:14.490Z,86.46
2019-02-15T08:19:45.922Z,86.19
2019-02-15T08:22:17.293Z,86.03
2019-02-15T08:24:48.639Z,85.73
2019-02-15T08:27:19.967Z,85.67
2019-02-15T08:29:51.242Z,85.35
2019-02-15T08:32:22.549Z,84.95
2019-02-15T08:34:53.828Z,84.74
2019-02-15T08:37:25.121Z,84.62
2019-02-15T08:39:56.385Z,84.24
2019-02-15T08:42:27.760Z,84.05
2019-02-15T08:44:59.024Z,83.70
2019-02-15T08:47:30.386Z,83.61
2019-02-15T08:50:01.653Z,83.31
2019-02-15T08:52:33.038Z,83.37
2019-02-15T08:55:06.383Z,83.15
2019-02-15T08:57:37.820Z,83.42
2019-02-15T09:00:12.478Z,83.23
2019-02-15T09:02:43.985Z,83.26
2019-02-15T09:05:15.357Z,83.25
2019-02-15T09:07:46.730Z,83.10
2019-02-15T09:10:18.158Z,82.92
2019-02-15T09:12:49.621Z,83.01
2019-02-15T09:15:23.982Z,83.13
2019-02-15T09:17:55.276Z,82.93
2019-02-15T09:20:26.537Z,82.71
2019-02-15T09:22:57.874Z,82.49
2019-02-15T09:25:32.590Z,82.61
2019-02-15T09:28:14.920Z,82.37
2019-02-15T09:30:48.055Z,82.62
2019-02-15T09:33:19.496Z,82.22
2019-02-15T09:35:51.006Z,82.13
2019-02-15T09:38:22.463Z,82.26
2019-02-15T09:40:53.793Z,82.24
2019-02-15T09:43:25.200Z,81.95
2019-02-15T09:45:56.619Z,81.73
2019-02-15T09:48:27.924Z,81.51
2019-02-15T09:50:59.317Z,81.28
2019-02-15T09:53:30.600Z,81.07
2019-02-15T09:56:01.931Z,80.92
2019-02-15T09:58:34.214Z,81.06
2019-02-15T10:01:05.546Z,80.82
2019-02-15T10:03:36.853Z,80.39
2019-02-15T10:06:08.201Z,79.37
2019-02-15T10:08:39.638Z,77.71
2019-02-15T10:11:13.791Z,77.70
2019-02-15T10:13:45.123Z,77.01
2019-02-15T10:16:16.399Z,76.58
2019-02-15T10:18:47.717Z,76.38
2019-02-15T10:21:19.080Z,76.34
2019-02-15T10:23:50.461Z,75.57
2019-02-15T10:26:23.537Z,75.19
2019-02-15T10:28:54.921Z,75.02
2019-02-15T10:31:26.645Z,74.20
2019-02-15T10:33:57.984Z,74.21
2019-02-15T10:36:29.347Z,75.00
2019-02-15T10:39:00.659Z,73.89
2019-02-15T10:41:33.535Z,73.42
2019-02-15T10:44:04.911Z,73.13
2019-02-15T10:46:38.055Z,72.25
2019-02-15T10:49:09.323Z,72.72
2019-02-15T10:51:40.635Z,69.84
2019-02-15T10:54:11.996Z,69.47
2019-02-15T10:56:43.457Z,68.93
2019-02-15T10:59:15.619Z,68.16
2019-02-15T11:01:47.279Z,65.65
2019-02-15T11:04:18.676Z,62.26
2019-02-15T11:06:50.380Z,63.00
2019-02-15T11:09:21.778Z,62.95
2019-02-15T11:11:53.054Z,61.69
2019-02-15T11:14:24.392Z,60.78
2019-02-15T11:16:55.867Z,60.90
2019-02-15T11:19:27.196Z,60.28
2019-02-15T11:21:58.467Z,61.05
2019-02-15T11:24:29.843Z,59.19
2019-02-15T11:27:01.105Z,59.68
2019-02-15T11:29:32.511Z,59.50
2019-02-15T11:32:03.857Z,58.93
2019-02-15T11:34:37.317Z,58.59
2019-02-15T11:37:08.887Z,60.11
2019-02-15T11:39:43.930Z,59.76
2019-02-15T11:42:15.330Z,57.40
2019-02-15T11:44:46.639Z,58.08
2019-02-15T11:47:17.894Z,58.83
2019-02-15T11:49:49.225Z,58.84
2019-02-15T11:52:20.581Z,57.91
2019-02-15T11:54:52.032Z,58.48
2019-02-15T11:57:23.578Z,55.60
2019-02-15T11:59:55.017Z,54.83
2019-02-15T12:02:27.524Z,54.79
2019-02-15T12:04:58.845Z,53.95
2019-02-15T12:07:30.174Z,55.43
2019-02-15T12:10:01.662Z,53.66
2019-02-15T12:12:33.117Z,54.08
2019-02-15T12:15:06.467Z,53.25
2019-02-15T12:17:37.889Z,54.68
2019-02-15T12:20:12.509Z,53.29
2019-02-15T12:22:43.849Z,55.41
2019-02-15T12:25:15.229Z,55.04
2019-02-15T12:27:46.567Z,54.33
2019-02-15T12:30:18.207Z,52.06
2019-02-15T12:32:49.637Z,52.61
2019-02-15T12:35:21.071Z,52.20
2019-02-15T12:37:52.445Z,53.19
2019-02-15T12:40:23.756Z,50.30
2019-02-15T12:42:55.044Z,51.64
2019-02-15T12:45:26.561Z,48.95
2019-02-15T12:47:59.861Z,50.47
2019-02-15T12:50:31.259Z,49.37
2019-02-15T12:53:02.608Z,53.73
2019-02-15T12:55:33.916Z,52.35
2019-02-15T12:58:05.263Z,50.44
2019-02-15T13:00:36.699Z,50.70
2019-02-15T13:03:08.051Z,51.65
2019-02-15T13:05:39.397Z,50.07
2019-02-15T13:08:10.866Z,49.05
2019-02-15T13:10:43.547Z,49.94
2019-02-15T13:13:14.978Z,47.78
2019-02-15T13:15:46.622Z,46.47
2019-02-15T13:18:18.133Z,48.88
2019-02-15T13:20:49.486Z,47.48
2019-02-15T13:23:20.988Z,48.36
2019-02-15T13:25:52.357Z,47.25
2019-02-15T13:28:23.838Z,49.00
2019-02-15T13:30:55.291Z,48.13
2019-02-15T13:33:26.684Z,46.16
2019-02-15T13:35:58.170Z,47.04
2019-02-15T13:38:29.663Z,45.78
2019-02-15T13:41:01.115Z,45.59
2019-02-15T13:43:32.491Z,46.25
2019-02-15T13:46:04.101Z,48.28
2019-02-15T13:48:36.725Z,47.87
2019-02-15T13:51:08.106Z,44.87
2019-02-15T13:53:39.503Z,45.96
2019-02-15T13:56:10.962Z,47.12
2019-02-15T13:58:43.997Z,46.32
2019-02-15T14:01:15.501Z,45.68
2019-02-15T14:03:47.243Z,43.62
2019-02-15T14:06:18.697Z,45.85
2019-02-15T14:08:50.074Z,44.19
2019-02-15T14:11:21.516Z,44.26
2019-02-15T14:13:52.988Z,44.52
2019-02-15T14:16:24.367Z,44.39
2019-02-15T14:18:55.821Z,44.61
2019-02-15T14:21:27.240Z,45.47
2019-02-15T14:24:01.201Z,43.48
2019-02-15T14:26:37.186Z,43.92
2019-02-15T14:29:13.189Z,44.50
2019-02-15T14:31:46.114Z,45.21
2019-02-15T14:34:17.482Z,45.09
2019-02-15T14:36:49.049Z,46.07
2019-02-15T14:39:28.324Z,45.98
2019-02-15T14:42:00.824Z,43.00
2019-02-15T14:44:32.373Z,42.47
2019-02-15T14:47:03.735Z,44.74
2019-02-15T14:49:35.113Z,44.82
2019-02-15T14:52:06.470Z,42.26
2019-02-15T14:54:38.011Z,44.04
2019-02-15T14:57:09.734Z,43.98
2019-02-15T14:59:41.136Z,42.62
2019-02-15T15:02:12.529Z,43.90
2019-02-15T15:04:43.818Z,42.03
2019-02-15T15:07:15.187Z,43.67
2019-02-15T15:09:46.491Z,43.47
2019-02-15T15:12:17.769Z,42.63
2019-02-15T15:14:49.120Z,43.21
2019-02-15T15:17:20.450Z,43.23
2019-02-15T15:19:51.778Z,43.48
2019-02-15T15:22:23.068Z,41.89
2019-02-15T15:24:54.695Z,43.60
2019-02-15T15:27:27.621Z,43.22
2019-02-15T15:29:59.045Z,43.09
2019-02-15T15:32:30.593Z,43.31
2019-02-15T15:35:02.120Z,43.14
2019-02-15T15:37:33.449Z,43.07
2019-02-15T15:40:08.438Z,43.04
2019-02-15T15:42:39.896Z,43.42
2019-02-15T15:45:13.263Z,44.25
2019-02-15T15:47:44.726Z,42.87
2019-02-15T15:50:16.205Z,43.49
2019-02-15T15:52:47.549Z,43.05
2019-02-15T15:55:18.982Z,43.22
2019-02-15T15:57:50.408Z,43.60
2019-02-15T16:00:21.806Z,44.79
2019-02-15T16:02:53.259Z,44.38
2019-02-15T16:05:24.732Z,45.02
2019-02-15T16:07:56.143Z,45.47
2019-02-15T16:10:27.430Z,45.90
2019-02-15T16:12:58.876Z,46.31
2019-02-15T16:15:30.496Z,46.12
2019-02-15T16:18:02.105Z,46.36
2019-02-15T16:20:33.522Z,46.91
2019-02-15T16:23:04.867Z,47.29
2019-02-15T16:25:36.295Z,47.61
2019-02-15T16:28:07.654Z,47.44
2019-02-15T16:30:39.200Z,47.95
2019-02-15T16:33:10.748Z,48.73
2019-02-15T16:35:42.060Z,48.61
2019-02-15T16:38:14.981Z,49.32
2019-02-15T16:40:51.437Z,49.69
2019-02-15T16:43:22.888Z,50.13
2019-02-15T16:45:54.341Z,50.31
2019-02-15T16:48:25.692Z,51.19
2019-02-15T16:50:57.062Z,51.42
2019-02-15T16:53:28.437Z,52.06
2019-02-15T16:55:59.910Z,52.04
2019-02-15T16:58:31.356Z,51.80
2019-02-15T17:01:02.884Z,51.18
2019-02-15T17:03:35.485Z,51.09
2019-02-15T17:06:06.932Z,50.90
2019-02-15T17:08:38.454Z,51.25
2019-02-15T17:11:11.897Z,51.43
2019-02-15T17:13:42.937Z,51.55
2019-02-15T17:16:14.323Z,51.69
2019-02-15T17:18:51.599Z,51.66
2019-02-15T17:21:18.671Z,51.81
2019-02-15T17:23:51.816Z,52.66
2019-02-15T17:26:23.165Z,52.52
2019-02-15T17:28:54.568Z,52.96
2019-02-15T17:31:25.880Z,53.37
2019-02-15T17:33:57.213Z,54.29
2019-02-15T17:36:28.562Z,54.14
2019-02-15T17:39:00.212Z,54.34
2019-02-15T17:41:33.178Z,54.79
2019-02-15T17:44:04.561Z,54.95
2019-02-15T17:46:35.960Z,55.33
2019-02-15T17:49:07.284Z,55.34
2019-02-15T17:51:38.791Z,55.90
2019-02-15T17:54:10.360Z,56.39
2019-02-15T17:56:41.738Z,56.67
2019-02-15T17:59:13.258Z,56.65
2019-02-15T18:01:44.682Z,57.50
2019-02-15T18:04:16.076Z,57.34
2019-02-15T18:06:47.432Z,57.96
2019-02-15T18:09:18.749Z,58.29
2019-02-15T18:11:51.021Z,58.65
2019-02-15T18:14:24.106Z,58.64
2019-02-15T18:16:55.670Z,58.90
2019-02-15T18:19:26.992Z,59.60
2019-02-15T18:21:58.464Z,59.69
2019-02-15T18:24:29.790Z,59.52
2019-02-15T18:27:01.272Z,59.90
2019-02-15T18:29:32.942Z,59.98
2019-02-15T18:32:04.366Z,60.10
2019-02-15T18:34:35.996Z,60.18
2019-02-15T18:37:07.610Z,60.41
2019-02-15T18:39:38.967Z,60.26
2019-02-15T18:42:10.303Z,60.38
2019-02-15T18:44:41.761Z,60.73
2019-02-15T18:47:13.193Z,60.90
2019-02-15T18:49:44.644Z,60.98
2019-02-15T18:52:16.076Z,61.23
2019-02-15T18:54:47.399Z,61.70
2019-02-15T18:57:18.879Z,61.91
2019-02-15T18:59:50.266Z,61.67
2019-02-15T19:02:23.204Z,62.06
2019-02-15T19:04:54.559Z,62.20
2019-02-15T19:07:26.010Z,62.30
2019-02-15T19:09:57.397Z,62.22
2019-02-15T19:12:28.815Z,62.54
2019-02-15T19:15:04.025Z,62.94
2019-02-15T19:17:35.605Z,63.42
2019-02-15T19:20:12.950Z,63.41
2019-02-15T19:22:44.284Z,63.57
2019-02-15T19:25:21.789Z,63.46
2019-02-15T19:27:53.211Z,64.06
2019-02-15T19:30:35.534Z,64.35
2019-02-15T19:33:09.720Z,64.71
2019-02-15T19:35:41.229Z,64.65
2019-02-15T19:38:13.053Z,64.90
2019-02-15T19:40:48.057Z,65.79
2019-02-15T19:43:19.582Z,66.59
2019-02-15T19:45:58.460Z,66.07
2019-02-15T19:48:30.375Z,66.24
2019-02-15T19:51:01.894Z,65.44
2019-02-15T19:53:33.343Z,66.02
2019-02-15T19:56:04.767Z,66.03
2019-02-15T19:58:36.211Z,66.98
2019-02-15T20:01:08.196Z,67.10
2019-02-15T20:03:40.756Z,68.14
2019-02-15T20:06:14.410Z,69.02
2019-02-15T20:08:46.273Z,68.85
2019-02-15T20:11:17.654Z,68.87
2019-02-15T20:13:50.028Z,68.67
2019-02-15T20:16:22.435Z,69.17
2019-02-15T20:18:54.356Z,68.74
2019-02-15T20:21:26.477Z,69.66
2019-02-15T20:23:57.920Z,69.83
2019-02-15T20:26:29.341Z,69.82
2019-02-15T20:29:03.914Z,71.26
2019-02-15T20:31:35.552Z,70.91
2019-02-15T20:34:07.029Z,71.35
2019-02-15T20:36:41.949Z,71.71
2019-02-15T20:39:29.381Z,70.84
2019-02-15T20:42:00.813Z,72.02
2019-02-15T20:44:32.313Z,71.43
2019-02-15T20:47:05.503Z,71.03
2019-02-15T20:49:37.981Z,72.44
2019-02-15T20:52:09.639Z,71.82
2019-02-15T20:54:42.967Z,72.80
2019-02-15T20:57:14.355Z,72.62
2019-02-15T20:59:47.568Z,72.40
2019-02-15T21:02:19.035Z,71.90
2019-02-15T21:04:50.485Z,73.45
2019-02-15T21:07:22.937Z,73.54
2019-02-15T21:09:59.257Z,73.73
2019-02-15T21:12:30.674Z,73.48
2019-02-15T21:15:04.197Z,73.43
2019-02-15T21:17:35.617Z,73.64
2019-02-15T21:20:13.874Z,73.50
2019-02-15T21:22:46.919Z,73.21
2019-02-15T21:25:19.267Z,73.49
2019-02-15T21:27:51.297Z,73.14
2019-02-15T21:30:24.797Z,72.83
2019-02-15T21:32:56.331Z,73.18
2019-02-15T21:35:27.748Z,73.24
2019-02-15T21:37:59.205Z,73.71
2019-02-15T21:40:30.584Z,74.02
2019-02-15T21:43:02.059Z,73.58
2019-02-15T21:45:33.470Z,72.83
2019-02-15T21:48:04.949Z,73.56
2019-02-15T21:50:36.428Z,73.80
2019-02-15T21:53:07.943Z,73.40
2019-02-15T21:55:39.363Z,74.24
2019-02-15T21:58:10.701Z,73.73
2019-02-15T22:00:42.154Z,73.18
2019-02-15T22:03:13.554Z,72.45
2019-02-15T22:05:44.947Z,72.82
2019-02-15T22:08:17.301Z,73.04
2019-02-15T22:10:49.550Z,72.69
2019-02-15T22:13:20.882Z,73.35
2019-02-15T22:15:52.280Z,73.37
2019-02-15T22:18:23.749Z,72.95
2019-02-15T22:20:55.005Z,72.12
2019-02-15T22:23:26.488Z,73.00
2019-02-15T22:25:57.772Z,73.37
2019-02-15T22:28:29.216Z,73.19
2019-02-15T22:31:00.551Z,72.68
2019-02-15T22:33:32.010Z,72.59
2019-02-15T22:36:03.345Z,72.99
2019-02-15T22:38:34.744Z,73.54
2019-02-15T22:41:10.762Z,73.58
2019-02-15T22:43:43.271Z,72.80
2019-02-15T22:46:14.634Z,73.56
2019-02-15T22:48:46.275Z,73.10
2019-02-15T22:51:17.775Z,74.08
2019-02-15T22:53:50.043Z,74.30
2019-02-15T22:56:21.524Z,74.00
2019-02-15T22:58:52.892Z,74.11
2019-02-15T23:01:24.451Z,74.03
2019-02-15T23:03:56.156Z,73.83
2019-02-15T23:06:27.455Z,74.33
2019-02-15T23:08:58.835Z,74.54
2019-02-15T23:11:30.205Z,74.99
2019-02-15T23:14:01.491Z,74.65
2019-02-15T23:16:32.829Z,74.84
2019-02-15T23:19:04.278Z,75.31
2019-02-15T23:21:35.534Z,74.85
2019-02-15T23:24:06.978Z,74.10
2019-02-15T23:26:39.460Z,73.90
2019-02-15T23:29:10.917Z,74.25
2019-02-15T23:31:42.387Z,74.57
2019-02-15T23:34:13.813Z,74.93
2019-02-15T23:36:45.438Z,75.49
2019-02-15T23:39:16.771Z,76.09
2019-02-15T23:41:48.070Z,75.55
2019-02-15T23:44:19.424Z,75.49
2019-02-15T23:46:50.675Z,75.63
2019-02-15T23:49:21.999Z,75.31
2019-02-15T23:51:53.330Z,74.96
2019-02-15T23:54:24.736Z,74.99
2019-02-15T23:56:56.075Z,75.11
2019-02-15T23:59:27.444Z,75.22
